sensor_id;sensor_type;location;lat;lon;timestamp;P1;durP1;ratioP1;P2;durP2;ratioP2
66970;SDS011;53901;51.466;-2.588;2022-12-11T00:01:07;46.00;;;23.25;;
66970;SDS011;53901;51.466;-2.588;2022-12-11T00:03:33;40.67;;;21.08;;
66970;SDS011;53901;51.466;-2.588;2022-12-11T00:05:59;51.22;;;26.25;;
66970;SDS011;53901;51.466;-2.588;2022-12-11T00:08:24;42.70;;;23.23;;
66970;SDS011;53901;51.466;-2.588;2022-12-11T00:10:49;40.38;;;20.65;;
66970;SDS011;53901;51.466;-2.588;2022-12-11T00:13:15;38.38;;;19.67;;
66970;SDS011;53901;51.466;-2.588;2022-12-11T00:15:40;33.90;;;18.85;;
66970;SDS011;53901;51.466;-2.588;2022-12-11T00:18:06;35.55;;;17.90;;
66970;SDS011;53901;51.466;-2.588;2022-12-11T00:20:36;26.42;;;15.30;;
66970;SDS011;53901;51.466;-2.588;2022-12-11T00:23:03;27.42;;;15.80;;
66970;SDS011;53901;51.466;-2.588;2022-12-11T00:25:29;35.70;;;17.92;;
66970;SDS011;53901;51.466;-2.588;2022-12-11T00:27:54;36.05;;;18.10;;
66970;SDS011;53901;51.466;-2.588;2022-12-11T00:30:20;29.75;;;15.55;;
66970;SDS011;53901;51.466;-2.588;2022-12-11T00:32:45;28.08;;;14.98;;
66970;SDS011;53901;51.466;-2.588;2022-12-11T00:35:10;29.13;;;15.20;;
66970;SDS011;53901;51.466;-2.588;2022-12-11T00:37:36;39.05;;;20.40;;
66970;SDS011;53901;51.466;-2.588;2022-12-11T00:40:01;32.38;;;19.05;;
66970;SDS011;53901;51.466;-2.588;2022-12-11T00:42:27;27.55;;;15.93;;
66970;SDS011;53901;51.466;-2.588;2022-12-11T00:44:53;29.98;;;15.70;;
66970;SDS011;53901;51.466;-2.588;2022-12-11T00:47:20;26.45;;;14.63;;
66970;SDS011;53901;51.466;-2.588;2022-12-11T00:49:45;28.88;;;16.30;;
66970;SDS011;53901;51.466;-2.588;2022-12-11T00:52:11;27.17;;;14.63;;
66970;SDS011;53901;51.466;-2.588;2022-12-11T00:54:36;30.30;;;16.60;;
66970;SDS011;53901;51.466;-2.588;2022-12-11T00:57:01;32.65;;;17.60;;
66970;SDS011;53901;51.466;-2.588;2022-12-11T00:59:27;30.15;;;16.60;;
66970;SDS011;53901;51.466;-2.588;2022-12-11T01:01:52;31.55;;;18.10;;
66970;SDS011;53901;51.466;-2.588;2022-12-11T01:04:18;33.80;;;16.38;;
66970;SDS011;53901;51.466;-2.588;2022-12-11T01:06:43;24.13;;;13.07;;
66970;SDS011;53901;51.466;-2.588;2022-12-11T01:09:09;29.95;;;15.95;;
66970;SDS011;53901;51.466;-2.588;2022-12-11T01:11:53;29.52;;;15.82;;
66970;SDS011;53901;51.466;-2.588;2022-12-11T01:14:18;31.02;;;14.23;;
66970;SDS011;53901;51.466;-2.588;2022-12-11T01:16:44;26.08;;;14.38;;
66970;SDS011;53901;51.466;-2.588;2022-12-11T01:19:09;26.23;;;14.65;;
66970;SDS011;53901;51.466;-2.588;2022-12-11T01:21:34;26.23;;;14.10;;
66970;SDS011;53901;51.466;-2.588;2022-12-11T01:24:00;28.42;;;13.88;;
66970;SDS011;53901;51.466;-2.588;2022-12-11T01:26:25;27.05;;;14.05;;
66970;SDS011;53901;51.466;-2.588;2022-12-11T01:28:51;29.67;;;15.63;;
66970;SDS011;53901;51.466;-2.588;2022-12-11T01:31:17;21.63;;;12.82;;
66970;SDS011;53901;51.466;-2.588;2022-12-11T01:33:43;27.02;;;14.20;;
66970;SDS011;53901;51.466;-2.588;2022-12-11T01:36:14;26.13;;;13.38;;
66970;SDS011;53901;51.466;-2.588;2022-12-11T01:38:44;26.20;;;14.70;;
66970;SDS011;53901;51.466;-2.588;2022-12-11T01:41:10;33.05;;;17.83;;
66970;SDS011;53901;51.466;-2.588;2022-12-11T01:46:39;27.23;;;12.32;;
66970;SDS011;53901;51.466;-2.588;2022-12-11T01:49:09;27.88;;;13.60;;
66970;SDS011;53901;51.466;-2.588;2022-12-11T01:51:38;23.88;;;12.27;;
66970;SDS011;53901;51.466;-2.588;2022-12-11T01:54:06;20.77;;;12.68;;
66970;SDS011;53901;51.466;-2.588;2022-12-11T01:56:35;18.83;;;10.48;;
66970;SDS011;53901;51.466;-2.588;2022-12-11T01:59:02;23.05;;;13.10;;
66970;SDS011;53901;51.466;-2.588;2022-12-11T02:04:06;22.60;;;12.18;;
66970;SDS011;53901;51.466;-2.588;2022-12-11T02:06:34;28.80;;;14.20;;
66970;SDS011;53901;51.466;-2.588;2022-12-11T02:09:02;26.88;;;14.07;;
66970;SDS011;53901;51.466;-2.588;2022-12-11T02:19:33;23.05;;;12.50;;
66970;SDS011;53901;51.466;-2.588;2022-12-11T02:27:49;30.77;;;13.43;;
66970;SDS011;53901;51.466;-2.588;2022-12-11T02:30:28;23.05;;;13.10;;
66970;SDS011;53901;51.466;-2.588;2022-12-11T02:32:55;26.42;;;14.52;;
66970;SDS011;53901;51.466;-2.588;2022-12-11T02:35:24;22.38;;;12.40;;
66970;SDS011;53901;51.466;-2.588;2022-12-11T02:38:00;25.73;;;12.68;;
66970;SDS011;53901;51.466;-2.588;2022-12-11T02:40:29;24.23;;;11.70;;
66970;SDS011;53901;51.466;-2.588;2022-12-11T02:42:56;20.92;;;11.43;;
66970;SDS011;53901;51.466;-2.588;2022-12-11T02:45:24;23.73;;;12.60;;
66970;SDS011;53901;51.466;-2.588;2022-12-11T02:47:50;23.50;;;12.15;;
66970;SDS011;53901;51.466;-2.588;2022-12-11T02:50:17;18.58;;;10.88;;
66970;SDS011;53901;51.466;-2.588;2022-12-11T02:52:44;22.08;;;11.93;;
66970;SDS011;53901;51.466;-2.588;2022-12-11T02:55:11;19.27;;;10.93;;
66970;SDS011;53901;51.466;-2.588;2022-12-11T02:57:50;22.27;;;11.55;;
66970;SDS011;53901;51.466;-2.588;2022-12-11T03:00:21;20.77;;;10.43;;
66970;SDS011;53901;51.466;-2.588;2022-12-11T03:02:46;17.75;;;9.95;;
66970;SDS011;53901;51.466;-2.588;2022-12-11T03:05:12;19.95;;;10.10;;
66970;SDS011;53901;51.466;-2.588;2022-12-11T03:07:39;21.10;;;12.15;;
66970;SDS011;53901;51.466;-2.588;2022-12-11T03:10:07;19.20;;;11.40;;
66970;SDS011;53901;51.466;-2.588;2022-12-11T03:12:35;19.38;;;10.93;;
66970;SDS011;53901;51.466;-2.588;2022-12-11T03:15:04;20.45;;;11.52;;
66970;SDS011;53901;51.466;-2.588;2022-12-11T03:17:55;21.58;;;12.85;;
66970;SDS011;53901;51.466;-2.588;2022-12-11T03:21:04;17.73;;;10.00;;
66970;SDS011;53901;51.466;-2.588;2022-12-11T03:23:31;19.85;;;10.60;;
66970;SDS011;53901;51.466;-2.588;2022-12-11T03:26:05;20.15;;;9.70;;
66970;SDS011;53901;51.466;-2.588;2022-12-11T03:31:24;18.93;;;10.93;;
66970;SDS011;53901;51.466;-2.588;2022-12-11T03:34:33;20.95;;;11.20;;
66970;SDS011;53901;51.466;-2.588;2022-12-11T03:36:59;16.75;;;9.63;;
66970;SDS011;53901;51.466;-2.588;2022-12-11T03:39:27;17.23;;;9.57;;
66970;SDS011;53901;51.466;-2.588;2022-12-11T03:41:56;16.35;;;9.45;;
66970;SDS011;53901;51.466;-2.588;2022-12-11T03:44:22;15.02;;;9.02;;
66970;SDS011;53901;51.466;-2.588;2022-12-11T03:46:48;18.15;;;10.18;;
66970;SDS011;53901;51.466;-2.588;2022-12-11T03:49:16;21.85;;;11.63;;
66970;SDS011;53901;51.466;-2.588;2022-12-11T03:51:44;17.63;;;8.85;;
66970;SDS011;53901;51.466;-2.588;2022-12-11T03:54:13;19.10;;;9.25;;
66970;SDS011;53901;51.466;-2.588;2022-12-11T03:56:39;19.48;;;10.80;;
66970;SDS011;53901;51.466;-2.588;2022-12-11T03:59:05;17.00;;;11.15;;
66970;SDS011;53901;51.466;-2.588;2022-12-11T04:01:31;18.25;;;10.48;;
66970;SDS011;53901;51.466;-2.588;2022-12-11T04:03:56;18.25;;;9.63;;
66970;SDS011;53901;51.466;-2.588;2022-12-11T04:06:21;16.20;;;10.05;;
66970;SDS011;53901;51.466;-2.588;2022-12-11T04:08:47;16.92;;;9.57;;
66970;SDS011;53901;51.466;-2.588;2022-12-11T04:11:12;19.92;;;11.63;;
66970;SDS011;53901;51.466;-2.588;2022-12-11T04:13:56;19.08;;;10.30;;
66970;SDS011;53901;51.466;-2.588;2022-12-11T04:16:40;19.42;;;10.38;;
66970;SDS011;53901;51.466;-2.588;2022-12-11T04:19:06;16.60;;;9.70;;
66970;SDS011;53901;51.466;-2.588;2022-12-11T04:21:51;17.17;;;9.60;;
66970;SDS011;53901;51.466;-2.588;2022-12-11T04:24:35;20.60;;;10.90;;
66970;SDS011;53901;51.466;-2.588;2022-12-11T04:27:00;18.58;;;11.13;;
66970;SDS011;53901;51.466;-2.588;2022-12-11T04:29:25;17.70;;;11.10;;
66970;SDS011;53901;51.466;-2.588;2022-12-11T04:31:51;19.73;;;10.57;;
66970;SDS011;53901;51.466;-2.588;2022-12-11T04:34:16;18.55;;;9.20;;
66970;SDS011;53901;51.466;-2.588;2022-12-11T04:36:42;16.65;;;9.95;;
66970;SDS011;53901;51.466;-2.588;2022-12-11T04:39:07;16.88;;;9.02;;
66970;SDS011;53901;51.466;-2.588;2022-12-11T04:41:33;19.30;;;9.27;;
66970;SDS011;53901;51.466;-2.588;2022-12-11T04:43:59;18.08;;;9.48;;
66970;SDS011;53901;51.466;-2.588;2022-12-11T04:46:24;19.38;;;9.55;;
66970;SDS011;53901;51.466;-2.588;2022-12-11T04:48:50;17.13;;;9.13;;
66970;SDS011;53901;51.466;-2.588;2022-12-11T04:51:17;14.52;;;7.88;;
66970;SDS011;53901;51.466;-2.588;2022-12-11T04:53:42;15.88;;;9.15;;
66970;SDS011;53901;51.466;-2.588;2022-12-11T04:56:10;19.45;;;9.88;;
66970;SDS011;53901;51.466;-2.588;2022-12-11T04:58:37;17.80;;;8.68;;
66970;SDS011;53901;51.466;-2.588;2022-12-11T05:01:10;14.88;;;8.05;;
66970;SDS011;53901;51.466;-2.588;2022-12-11T05:03:37;16.30;;;8.75;;
66970;SDS011;53901;51.466;-2.588;2022-12-11T05:06:03;18.13;;;9.43;;
66970;SDS011;53901;51.466;-2.588;2022-12-11T05:08:28;15.75;;;8.95;;
66970;SDS011;53901;51.466;-2.588;2022-12-11T05:10:58;18.75;;;10.10;;
66970;SDS011;53901;51.466;-2.588;2022-12-11T05:13:25;14.48;;;8.85;;
66970;SDS011;53901;51.466;-2.588;2022-12-11T05:15:52;14.50;;;8.50;;
66970;SDS011;53901;51.466;-2.588;2022-12-11T05:18:17;17.00;;;9.68;;
66970;SDS011;53901;51.466;-2.588;2022-12-11T05:20:43;18.27;;;8.35;;
66970;SDS011;53901;51.466;-2.588;2022-12-11T05:23:08;16.73;;;9.80;;
66970;SDS011;53901;51.466;-2.588;2022-12-11T05:25:33;15.98;;;9.07;;
66970;SDS011;53901;51.466;-2.588;2022-12-11T05:27:59;17.65;;;10.38;;
66970;SDS011;53901;51.466;-2.588;2022-12-11T05:30:24;13.73;;;8.02;;
66970;SDS011;53901;51.466;-2.588;2022-12-11T05:32:50;16.25;;;8.65;;
66970;SDS011;53901;51.466;-2.588;2022-12-11T05:35:15;17.10;;;9.77;;
66970;SDS011;53901;51.466;-2.588;2022-12-11T05:37:41;17.08;;;8.93;;
66970;SDS011;53901;51.466;-2.588;2022-12-11T05:40:06;16.95;;;9.30;;
66970;SDS011;53901;51.466;-2.588;2022-12-11T05:42:32;17.58;;;8.50;;
66970;SDS011;53901;51.466;-2.588;2022-12-11T05:44:58;19.45;;;9.05;;
66970;SDS011;53901;51.466;-2.588;2022-12-11T05:47:24;13.25;;;8.45;;
66970;SDS011;53901;51.466;-2.588;2022-12-11T05:49:49;16.30;;;9.13;;
66970;SDS011;53901;51.466;-2.588;2022-12-11T05:52:15;15.73;;;8.95;;
66970;SDS011;53901;51.466;-2.588;2022-12-11T05:54:40;16.02;;;8.93;;
66970;SDS011;53901;51.466;-2.588;2022-12-11T05:57:06;16.27;;;9.35;;
66970;SDS011;53901;51.466;-2.588;2022-12-11T05:59:31;15.93;;;9.75;;
66970;SDS011;53901;51.466;-2.588;2022-12-11T06:01:57;18.90;;;9.80;;
66970;SDS011;53901;51.466;-2.588;2022-12-11T06:04:22;18.00;;;9.07;;
66970;SDS011;53901;51.466;-2.588;2022-12-11T06:06:48;20.67;;;9.20;;
66970;SDS011;53901;51.466;-2.588;2022-12-11T06:09:14;15.02;;;8.20;;
66970;SDS011;53901;51.466;-2.588;2022-12-11T06:11:40;15.48;;;9.18;;
66970;SDS011;53901;51.466;-2.588;2022-12-11T06:14:05;20.40;;;9.38;;
66970;SDS011;53901;51.466;-2.588;2022-12-11T06:16:31;17.77;;;9.65;;
66970;SDS011;53901;51.466;-2.588;2022-12-11T06:18:56;14.65;;;9.00;;
66970;SDS011;53901;51.466;-2.588;2022-12-11T06:21:23;17.25;;;9.45;;
66970;SDS011;53901;51.466;-2.588;2022-12-11T06:23:51;17.40;;;10.10;;
66970;SDS011;53901;51.466;-2.588;2022-12-11T06:26:18;20.13;;;9.82;;
66970;SDS011;53901;51.466;-2.588;2022-12-11T06:28:44;16.38;;;9.90;;
66970;SDS011;53901;51.466;-2.588;2022-12-11T06:31:10;17.70;;;10.40;;
66970;SDS011;53901;51.466;-2.588;2022-12-11T06:33:36;19.70;;;10.27;;
66970;SDS011;53901;51.466;-2.588;2022-12-11T06:36:02;20.05;;;10.40;;
66970;SDS011;53901;51.466;-2.588;2022-12-11T06:38:32;18.15;;;9.50;;
66970;SDS011;53901;51.466;-2.588;2022-12-11T06:40:59;17.00;;;9.52;;
66970;SDS011;53901;51.466;-2.588;2022-12-11T06:43:26;16.30;;;8.95;;
66970;SDS011;53901;51.466;-2.588;2022-12-11T06:45:52;16.48;;;8.65;;
66970;SDS011;53901;51.466;-2.588;2022-12-11T06:48:18;16.20;;;9.27;;
66970;SDS011;53901;51.466;-2.588;2022-12-11T06:50:44;17.02;;;9.30;;
66970;SDS011;53901;51.466;-2.588;2022-12-11T06:53:10;18.13;;;10.05;;
66970;SDS011;53901;51.466;-2.588;2022-12-11T06:55:36;15.75;;;9.05;;
66970;SDS011;53901;51.466;-2.588;2022-12-11T06:58:02;15.75;;;9.50;;
66970;SDS011;53901;51.466;-2.588;2022-12-11T07:00:27;17.60;;;9.75;;
66970;SDS011;53901;51.466;-2.588;2022-12-11T07:03:02;18.80;;;9.48;;
66970;SDS011;53901;51.466;-2.588;2022-12-11T07:05:31;16.13;;;8.85;;
66970;SDS011;53901;51.466;-2.588;2022-12-11T07:07:57;16.85;;;9.20;;
66970;SDS011;53901;51.466;-2.588;2022-12-11T07:10:23;18.08;;;9.60;;
66970;SDS011;53901;51.466;-2.588;2022-12-11T07:12:48;17.65;;;9.65;;
66970;SDS011;53901;51.466;-2.588;2022-12-11T07:15:14;18.73;;;10.15;;
66970;SDS011;53901;51.466;-2.588;2022-12-11T07:17:39;19.85;;;10.25;;
66970;SDS011;53901;51.466;-2.588;2022-12-11T07:20:05;15.30;;;8.60;;
66970;SDS011;53901;51.466;-2.588;2022-12-11T07:22:31;19.98;;;10.77;;
66970;SDS011;53901;51.466;-2.588;2022-12-11T07:24:56;21.08;;;9.95;;
66970;SDS011;53901;51.466;-2.588;2022-12-11T07:27:22;16.75;;;9.65;;
66970;SDS011;53901;51.466;-2.588;2022-12-11T07:29:49;15.93;;;8.93;;
66970;SDS011;53901;51.466;-2.588;2022-12-11T07:32:14;19.30;;;10.18;;
66970;SDS011;53901;51.466;-2.588;2022-12-11T07:34:40;17.17;;;9.73;;
66970;SDS011;53901;51.466;-2.588;2022-12-11T07:37:05;16.73;;;8.80;;
66970;SDS011;53901;51.466;-2.588;2022-12-11T07:39:31;16.70;;;8.75;;
66970;SDS011;53901;51.466;-2.588;2022-12-11T07:41:56;19.90;;;10.25;;
66970;SDS011;53901;51.466;-2.588;2022-12-11T07:44:21;21.77;;;10.52;;
66970;SDS011;53901;51.466;-2.588;2022-12-11T07:46:47;20.77;;;10.35;;
66970;SDS011;53901;51.466;-2.588;2022-12-11T07:49:12;17.77;;;9.57;;
66970;SDS011;53901;51.466;-2.588;2022-12-11T07:51:38;16.95;;;9.43;;
66970;SDS011;53901;51.466;-2.588;2022-12-11T07:54:04;18.45;;;10.32;;
66970;SDS011;53901;51.466;-2.588;2022-12-11T07:56:36;15.63;;;8.85;;
66970;SDS011;53901;51.466;-2.588;2022-12-11T07:59:02;16.52;;;9.30;;
66970;SDS011;53901;51.466;-2.588;2022-12-11T08:01:28;18.25;;;9.93;;
66970;SDS011;53901;51.466;-2.588;2022-12-11T08:03:55;18.17;;;10.10;;
66970;SDS011;53901;51.466;-2.588;2022-12-11T08:06:25;19.40;;;10.40;;
66970;SDS011;53901;51.466;-2.588;2022-12-11T08:08:53;18.25;;;10.20;;
66970;SDS011;53901;51.466;-2.588;2022-12-11T08:11:19;15.73;;;9.05;;
66970;SDS011;53901;51.466;-2.588;2022-12-11T08:13:44;17.10;;;8.68;;
66970;SDS011;53901;51.466;-2.588;2022-12-11T08:16:11;20.17;;;10.35;;
66970;SDS011;53901;51.466;-2.588;2022-12-11T08:18:38;19.58;;;10.50;;
66970;SDS011;53901;51.466;-2.588;2022-12-11T08:21:05;20.92;;;11.38;;
66970;SDS011;53901;51.466;-2.588;2022-12-11T08:23:31;18.65;;;10.55;;
66970;SDS011;53901;51.466;-2.588;2022-12-11T08:25:56;19.05;;;10.32;;
66970;SDS011;53901;51.466;-2.588;2022-12-11T08:28:21;20.55;;;11.10;;
66970;SDS011;53901;51.466;-2.588;2022-12-11T08:30:47;20.98;;;11.55;;
66970;SDS011;53901;51.466;-2.588;2022-12-11T08:33:12;22.05;;;11.05;;
66970;SDS011;53901;51.466;-2.588;2022-12-11T08:35:38;22.17;;;12.40;;
66970;SDS011;53901;51.466;-2.588;2022-12-11T08:38:04;18.48;;;10.50;;
66970;SDS011;53901;51.466;-2.588;2022-12-11T08:40:29;23.83;;;11.50;;
66970;SDS011;53901;51.466;-2.588;2022-12-11T08:42:55;20.98;;;11.23;;
66970;SDS011;53901;51.466;-2.588;2022-12-11T08:45:20;24.33;;;11.80;;
66970;SDS011;53901;51.466;-2.588;2022-12-11T08:47:45;24.02;;;11.27;;
66970;SDS011;53901;51.466;-2.588;2022-12-11T08:50:11;18.48;;;11.13;;
66970;SDS011;53901;51.466;-2.588;2022-12-11T08:52:37;22.80;;;11.80;;
66970;SDS011;53901;51.466;-2.588;2022-12-11T08:55:02;20.38;;;11.02;;
66970;SDS011;53901;51.466;-2.588;2022-12-11T08:57:28;19.40;;;10.73;;
66970;SDS011;53901;51.466;-2.588;2022-12-11T08:59:53;24.73;;;11.38;;
66970;SDS011;53901;51.466;-2.588;2022-12-11T09:02:19;21.58;;;11.93;;
66970;SDS011;53901;51.466;-2.588;2022-12-11T09:04:44;23.75;;;11.60;;
66970;SDS011;53901;51.466;-2.588;2022-12-11T09:07:09;21.30;;;11.45;;
66970;SDS011;53901;51.466;-2.588;2022-12-11T09:09:35;22.30;;;11.43;;
66970;SDS011;53901;51.466;-2.588;2022-12-11T09:12:00;23.83;;;10.77;;
66970;SDS011;53901;51.466;-2.588;2022-12-11T09:14:26;23.45;;;11.35;;
66970;SDS011;53901;51.466;-2.588;2022-12-11T09:16:51;21.83;;;11.50;;
66970;SDS011;53901;51.466;-2.588;2022-12-11T09:19:17;21.50;;;11.52;;
66970;SDS011;53901;51.466;-2.588;2022-12-11T09:21:43;19.58;;;10.65;;
66970;SDS011;53901;51.466;-2.588;2022-12-11T09:24:09;21.52;;;11.32;;
66970;SDS011;53901;51.466;-2.588;2022-12-11T09:26:35;19.42;;;11.70;;
66970;SDS011;53901;51.466;-2.588;2022-12-11T09:29:03;27.25;;;14.27;;
66970;SDS011;53901;51.466;-2.588;2022-12-11T09:31:30;23.08;;;12.20;;
66970;SDS011;53901;51.466;-2.588;2022-12-11T09:33:57;27.17;;;14.25;;
66970;SDS011;53901;51.466;-2.588;2022-12-11T09:36:25;32.10;;;15.13;;
66970;SDS011;53901;51.466;-2.588;2022-12-11T09:38:51;30.58;;;16.63;;
66970;SDS011;53901;51.466;-2.588;2022-12-11T09:43:48;32.03;;;16.20;;
66970;SDS011;53901;51.466;-2.588;2022-12-11T09:46:16;33.25;;;16.55;;
66970;SDS011;53901;51.466;-2.588;2022-12-11T09:48:43;47.50;;;28.17;;
66970;SDS011;53901;51.466;-2.588;2022-12-11T09:51:13;39.30;;;22.17;;
66970;SDS011;53901;51.466;-2.588;2022-12-11T09:53:53;34.78;;;18.15;;
66970;SDS011;53901;51.466;-2.588;2022-12-11T09:56:28;50.40;;;29.48;;
66970;SDS011;53901;51.466;-2.588;2022-12-11T10:07:15;32.55;;;18.27;;
66970;SDS011;53901;51.466;-2.588;2022-12-11T10:09:53;34.67;;;15.85;;
66970;SDS011;53901;51.466;-2.588;2022-12-11T10:15:13;26.17;;;14.93;;
66970;SDS011;53901;51.466;-2.588;2022-12-11T10:17:49;29.63;;;14.75;;
66970;SDS011;53901;51.466;-2.588;2022-12-11T10:20:21;30.13;;;14.15;;
66970;SDS011;53901;51.466;-2.588;2022-12-11T10:22:50;29.70;;;14.05;;
66970;SDS011;53901;51.466;-2.588;2022-12-11T10:25:19;33.38;;;14.65;;
66970;SDS011;53901;51.466;-2.588;2022-12-11T10:27:47;29.08;;;13.77;;
66970;SDS011;53901;51.466;-2.588;2022-12-11T10:35:27;30.33;;;14.48;;
66970;SDS011;53901;51.466;-2.588;2022-12-11T10:38:20;24.08;;;12.98;;
66970;SDS011;53901;51.466;-2.588;2022-12-11T10:40:53;29.63;;;14.75;;
66970;SDS011;53901;51.466;-2.588;2022-12-11T10:43:39;28.40;;;14.48;;
66970;SDS011;53901;51.466;-2.588;2022-12-11T10:46:18;29.55;;;13.75;;
66970;SDS011;53901;51.466;-2.588;2022-12-11T10:49:26;33.95;;;14.50;;
66970;SDS011;53901;51.466;-2.588;2022-12-11T10:51:54;31.13;;;15.38;;
66970;SDS011;53901;51.466;-2.588;2022-12-11T10:56:59;32.65;;;16.20;;
66970;SDS011;53901;51.466;-2.588;2022-12-11T11:01:57;32.08;;;16.48;;
66970;SDS011;53901;51.466;-2.588;2022-12-11T11:04:29;31.23;;;15.60;;
66970;SDS011;53901;51.466;-2.588;2022-12-11T11:07:00;30.33;;;16.25;;
66970;SDS011;53901;51.466;-2.588;2022-12-11T11:09:46;34.97;;;16.48;;
66970;SDS011;53901;51.466;-2.588;2022-12-11T11:15:31;30.73;;;16.05;;
66970;SDS011;53901;51.466;-2.588;2022-12-11T11:17:49;34.20;;;17.48;;
66970;SDS011;53901;51.466;-2.588;2022-12-11T11:20:17;38.50;;;17.27;;
66970;SDS011;53901;51.466;-2.588;2022-12-11T11:22:45;33.17;;;15.93;;
66970;SDS011;53901;51.466;-2.588;2022-12-11T11:25:23;34.03;;;15.90;;
66970;SDS011;53901;51.466;-2.588;2022-12-11T11:28:04;34.35;;;17.85;;
66970;SDS011;53901;51.466;-2.588;2022-12-11T11:30:38;34.08;;;16.05;;
66970;SDS011;53901;51.466;-2.588;2022-12-11T11:33:26;36.63;;;17.33;;
66970;SDS011;53901;51.466;-2.588;2022-12-11T11:35:54;30.08;;;16.27;;
66970;SDS011;53901;51.466;-2.588;2022-12-11T11:38:48;33.33;;;15.93;;
66970;SDS011;53901;51.466;-2.588;2022-12-11T11:41:28;35.33;;;16.73;;
66970;SDS011;53901;51.466;-2.588;2022-12-11T11:44:17;35.80;;;17.63;;
66970;SDS011;53901;51.466;-2.588;2022-12-11T11:46:54;39.00;;;17.45;;
66970;SDS011;53901;51.466;-2.588;2022-12-11T11:52:50;38.13;;;16.08;;
66970;SDS011;53901;51.466;-2.588;2022-12-11T11:55:25;35.65;;;16.75;;
66970;SDS011;53901;51.466;-2.588;2022-12-11T11:58:08;37.63;;;16.10;;
66970;SDS011;53901;51.466;-2.588;2022-12-11T12:00:39;37.08;;;17.17;;
66970;SDS011;53901;51.466;-2.588;2022-12-11T12:03:14;31.88;;;15.95;;
66970;SDS011;53901;51.466;-2.588;2022-12-11T12:05:55;33.15;;;15.77;;
66970;SDS011;53901;51.466;-2.588;2022-12-11T12:30:13;26.85;;;12.48;;
66970;SDS011;53901;51.466;-2.588;2022-12-11T12:48:53;24.45;;;12.05;;
66970;SDS011;53901;51.466;-2.588;2022-12-11T12:51:19;25.17;;;12.32;;
66970;SDS011;53901;51.466;-2.588;2022-12-11T12:53:51;28.08;;;13.85;;
66970;SDS011;53901;51.466;-2.588;2022-12-11T12:56:19;24.60;;;12.82;;
66970;SDS011;53901;51.466;-2.588;2022-12-11T12:58:45;28.80;;;13.85;;
66970;SDS011;53901;51.466;-2.588;2022-12-11T13:03:47;31.48;;;13.93;;
66970;SDS011;53901;51.466;-2.588;2022-12-11T13:06:13;33.28;;;15.57;;
66970;SDS011;53901;51.466;-2.588;2022-12-11T13:08:40;32.67;;;15.70;;
66970;SDS011;53901;51.466;-2.588;2022-12-11T13:11:14;32.42;;;14.40;;
66970;SDS011;53901;51.466;-2.588;2022-12-11T13:18:44;24.27;;;11.20;;
66970;SDS011;53901;51.466;-2.588;2022-12-11T13:23:54;29.05;;;13.82;;
66970;SDS011;53901;51.466;-2.588;2022-12-11T13:26:27;31.15;;;14.30;;
66970;SDS011;53901;51.466;-2.588;2022-12-11T13:28:53;31.73;;;13.98;;
66970;SDS011;53901;51.466;-2.588;2022-12-11T13:33:45;29.23;;;12.88;;
66970;SDS011;53901;51.466;-2.588;2022-12-11T13:38:59;29.73;;;14.20;;
66970;SDS011;53901;51.466;-2.588;2022-12-11T13:41:46;30.73;;;14.88;;
66970;SDS011;53901;51.466;-2.588;2022-12-11T13:44:15;33.55;;;15.13;;
66970;SDS011;53901;51.466;-2.588;2022-12-11T13:47:03;33.67;;;15.05;;
66970;SDS011;53901;51.466;-2.588;2022-12-11T13:49:34;30.50;;;14.93;;
66970;SDS011;53901;51.466;-2.588;2022-12-11T13:52:01;31.40;;;15.13;;
66970;SDS011;53901;51.466;-2.588;2022-12-11T13:54:27;31.77;;;15.25;;
66970;SDS011;53901;51.466;-2.588;2022-12-11T13:56:59;29.98;;;14.57;;
66970;SDS011;53901;51.466;-2.588;2022-12-11T13:59:28;33.33;;;14.93;;
66970;SDS011;53901;51.466;-2.588;2022-12-11T14:01:59;31.95;;;14.85;;
66970;SDS011;53901;51.466;-2.588;2022-12-11T14:04:28;28.77;;;14.07;;
66970;SDS011;53901;51.466;-2.588;2022-12-11T14:06:54;30.98;;;14.77;;
66970;SDS011;53901;51.466;-2.588;2022-12-11T14:09:21;31.63;;;14.82;;
66970;SDS011;53901;51.466;-2.588;2022-12-11T14:11:48;31.52;;;16.48;;
66970;SDS011;53901;51.466;-2.588;2022-12-11T14:14:20;30.13;;;13.85;;
66970;SDS011;53901;51.466;-2.588;2022-12-11T14:16:59;31.75;;;14.95;;
66970;SDS011;53901;51.466;-2.588;2022-12-11T14:19:24;33.53;;;16.23;;
66970;SDS011;53901;51.466;-2.588;2022-12-11T14:22:00;37.25;;;16.20;;
66970;SDS011;53901;51.466;-2.588;2022-12-11T14:24:29;33.97;;;16.17;;
66970;SDS011;53901;51.466;-2.588;2022-12-11T14:26:55;30.95;;;15.20;;
66970;SDS011;53901;51.466;-2.588;2022-12-11T14:29:22;33.72;;;17.20;;
66970;SDS011;53901;51.466;-2.588;2022-12-11T14:32:01;31.17;;;14.82;;
66970;SDS011;53901;51.466;-2.588;2022-12-11T14:34:32;30.40;;;15.05;;
66970;SDS011;53901;51.466;-2.588;2022-12-11T14:37:01;34.33;;;15.27;;
66970;SDS011;53901;51.466;-2.588;2022-12-11T14:39:30;34.00;;;15.85;;
66970;SDS011;53901;51.466;-2.588;2022-12-11T14:42:02;30.52;;;15.60;;
66970;SDS011;53901;51.466;-2.588;2022-12-11T14:44:32;30.27;;;15.65;;
66970;SDS011;53901;51.466;-2.588;2022-12-11T14:47:11;30.35;;;15.00;;
66970;SDS011;53901;51.466;-2.588;2022-12-11T14:49:45;32.88;;;16.58;;
66970;SDS011;53901;51.466;-2.588;2022-12-11T14:52:38;37.25;;;15.98;;
66970;SDS011;53901;51.466;-2.588;2022-12-11T14:55:21;31.20;;;16.20;;
66970;SDS011;53901;51.466;-2.588;2022-12-11T14:57:50;34.10;;;17.05;;
66970;SDS011;53901;51.466;-2.588;2022-12-11T15:00:22;31.90;;;15.52;;
66970;SDS011;53901;51.466;-2.588;2022-12-11T15:03:03;31.17;;;15.60;;
66970;SDS011;53901;51.466;-2.588;2022-12-11T15:05:30;32.28;;;16.23;;
66970;SDS011;53901;51.466;-2.588;2022-12-11T15:13:21;29.75;;;14.77;;
66970;SDS011;53901;51.466;-2.588;2022-12-11T15:15:47;30.80;;;15.32;;
66970;SDS011;53901;51.466;-2.588;2022-12-11T15:18:17;29.77;;;14.80;;
66970;SDS011;53901;51.466;-2.588;2022-12-11T15:20:45;28.65;;;14.27;;
66970;SDS011;53901;51.466;-2.588;2022-12-11T15:23:15;27.42;;;14.63;;
66970;SDS011;53901;51.466;-2.588;2022-12-11T15:25:40;32.88;;;15.25;;
66970;SDS011;53901;51.466;-2.588;2022-12-11T15:28:33;27.77;;;14.45;;
66970;SDS011;53901;51.466;-2.588;2022-12-11T15:31:04;30.90;;;14.50;;
66970;SDS011;53901;51.466;-2.588;2022-12-11T15:33:31;33.35;;;16.13;;
66970;SDS011;53901;51.466;-2.588;2022-12-11T15:36:03;32.78;;;15.27;;
66970;SDS011;53901;51.466;-2.588;2022-12-11T15:38:38;39.92;;;18.02;;
66970;SDS011;53901;51.466;-2.588;2022-12-11T15:41:08;34.17;;;16.33;;
66970;SDS011;53901;51.466;-2.588;2022-12-11T15:43:37;29.15;;;15.07;;
66970;SDS011;53901;51.466;-2.588;2022-12-11T15:46:03;28.13;;;14.50;;
66970;SDS011;53901;51.466;-2.588;2022-12-11T15:48:29;29.00;;;14.85;;
66970;SDS011;53901;51.466;-2.588;2022-12-11T15:50:55;32.42;;;15.77;;
66970;SDS011;53901;51.466;-2.588;2022-12-11T15:53:20;28.52;;;15.00;;
66970;SDS011;53901;51.466;-2.588;2022-12-11T15:55:46;25.95;;;13.90;;
66970;SDS011;53901;51.466;-2.588;2022-12-11T15:58:13;30.70;;;14.65;;
66970;SDS011;53901;51.466;-2.588;2022-12-11T16:00:40;29.60;;;14.95;;
66970;SDS011;53901;51.466;-2.588;2022-12-11T16:03:05;30.48;;;15.60;;
66970;SDS011;53901;51.466;-2.588;2022-12-11T16:05:33;29.77;;;15.00;;
66970;SDS011;53901;51.466;-2.588;2022-12-11T16:07:58;29.02;;;13.73;;
66970;SDS011;53901;51.466;-2.588;2022-12-11T16:10:24;26.08;;;12.98;;
66970;SDS011;53901;51.466;-2.588;2022-12-11T16:12:50;57.80;;;28.67;;